Impacts METAR Board
IDs:

KBOS - Boston/Logan Intl, MA, US

Updated at: 2100 UTC 24 Apr 2018
Potential Impact None Slight Moderate High
Time 24/09Z 24/10Z 24/11Z 24/12Z 24/13Z 24/14Z 24/15Z 24/16Z 24/17Z 24/18Z 24/19Z 24/20Z 24/21Z
Temp43 43 44 48 54 59 62 65 66 67 68 66 62
Dewpt31 32 34 36 34 32 30 27 28 31 33 37 39
Altim30.40 30.40 30.41 30.41 30.41 30.40 30.39 30.36 30.33 30.31 30.28 30.27 30.27
VIS10 10 10 10 10 10 10 10 10 10 10 10 10
CIG-- -- -- -- 250 250 250 -- 250 -- -- -- 220
CoverCLRSCTFEWSCTBKNBKNBKNSCTBKNSCTSCTCLROVC
FltCatVFRVFRVFRVFRVFRVFRVFRVFRVFRVFRVFRVFRVFR
WX--------------------------
WDir230230210220220240250220180180200190190
WSpd7 7 7 9 10 9 11 11 11 15 11 15 18
WGst-- -- -- -- -- -- -- -- -- -- 20 -- --
Raw hourly METARs
KBOS 240854Z 23007KT 10SM CLR 06/M01 A3040 RMK AO2 SLP293 T00611006 58006
KBOS 240954Z 23007KT 10SM SCT250 06/00 A3040 RMK AO2 SLP294 T00610000
KBOS 241054Z 21007KT 10SM FEW250 07/01 A3041 RMK AO2 SLP298 T00670011
KBOS 241154Z 22009KT 10SM SCT250 09/02 A3041 RMK AO2 SLP297 T00890022 10089 20056 50004
KBOS 241254Z 22010KT 10SM BKN250 12/01 A3041 RMK AO2 SLP298 T01220011
KBOS 241354Z 24009KT 10SM BKN250 15/00 A3040 RMK AO2 SLP295 T01500000
KBOS 241454Z 25011KT 10SM BKN250 17/M01 A3039 RMK AO2 SLP291 T01671011 58006
KBOS 241554Z 22011KT 10SM SCT250 18/M03 A3036 RMK AO2 SLP279 T01831028
KBOS 241654Z 18011KT 10SM BKN250 19/M02 A3033 RMK AO2 SLP269 T01891022
KBOS 241754Z 18015KT 10SM SCT250 19/M01 A3031 RMK AO2 SLP263 T01941006 10200 20089 56027
KBOS 241854Z 20011G20KT 10SM SCT250 20/01 A3028 RMK AO2 SLP252 T02000006
KBOS 241954Z 19015KT 10SM CLR 19/03 A3027 RMK AO2 SLP249 T01890028
KBOS 242054Z 19018KT 10SM SCT160 BKN220 OVC300 17/04 A3027 RMK AO2 SLP248 T01670039 56015



Page loaded:  21:05 UTC  |   02:05 PM Pacific  |   03:05 PM Mountain  |   04:05 PM Central  |   05:05 PM Eastern

 

ADVISORIES

FORECASTS

FORECASTS

OBSERVATIONS

USER TOOLS

ABOUT US